sensor_id;sensor_type;location;lat;lon;timestamp;pressure;altitude;pressure_sealevel;temperature;humidity
31225;BME280;17847;31.524;74.366;2023-03-12T00:01:44;99014.66;;;20.31;72.44
31225;BME280;17847;31.524;74.366;2023-03-12T00:04:26;99011.00;;;20.59;72.64
31225;BME280;17847;31.524;74.366;2023-03-12T00:07:15;99005.97;;;20.46;72.15
31225;BME280;17847;31.524;74.366;2023-03-12T00:09:50;99017.66;;;20.35;72.26
31225;BME280;17847;31.524;74.366;2023-03-12T00:12:46;99020.81;;;20.48;72.76
31225;BME280;17847;31.524;74.366;2023-03-12T00:15:22;99020.16;;;20.41;71.94
31225;BME280;17847;31.524;74.366;2023-03-12T00:18:18;99019.88;;;20.21;72.91
31225;BME280;17847;31.524;74.366;2023-03-12T00:20:54;99021.41;;;20.17;73.03
31225;BME280;17847;31.524;74.366;2023-03-12T00:23:51;99032.56;;;20.26;72.89
31225;BME280;17847;31.524;74.366;2023-03-12T00:26:47;99030.31;;;20.17;73.08
31225;BME280;17847;31.524;74.366;2023-03-12T00:29:23;99040.66;;;20.09;73.41
31225;BME280;17847;31.524;74.366;2023-03-12T00:32:18;99037.91;;;20.04;73.72
31225;BME280;17847;31.524;74.366;2023-03-12T00:34:55;99039.25;;;20.06;73.64
31225;BME280;17847;31.524;74.366;2023-03-12T00:37:50;99045.47;;;20.07;73.54
31225;BME280;17847;31.524;74.366;2023-03-12T00:40:32;99044.00;;;19.99;73.61
31225;BME280;17847;31.524;74.366;2023-03-12T00:43:21;99053.34;;;19.97;74.09
31225;BME280;17847;31.524;74.366;2023-03-12T00:46:04;99058.41;;;19.93;74.46
31225;BME280;17847;31.524;74.366;2023-03-12T00:48:54;99055.72;;;19.93;73.92
31225;BME280;17847;31.524;74.366;2023-03-12T00:51:37;99065.66;;;19.93;74.23
31225;BME280;17847;31.524;74.366;2023-03-12T00:54:25;99065.84;;;19.86;74.41
31225;BME280;17847;31.524;74.366;2023-03-12T00:57:08;99071.44;;;19.85;74.34
31225;BME280;17847;31.524;74.366;2023-03-12T00:59:56;99072.09;;;19.92;73.94
31225;BME280;17847;31.524;74.366;2023-03-12T01:02:39;99080.97;;;19.92;73.98
31225;BME280;17847;31.524;74.366;2023-03-12T01:05:28;99079.28;;;19.86;73.24
31225;BME280;17847;31.524;74.366;2023-03-12T01:08:11;99089.84;;;19.93;73.73
31225;BME280;17847;31.524;74.366;2023-03-12T01:11:01;99080.16;;;19.75;74.11
31225;BME280;17847;31.524;74.366;2023-03-12T01:13:44;99087.34;;;19.86;74.16
31225;BME280;17847;31.524;74.366;2023-03-12T01:16:32;99097.69;;;19.94;73.04
31225;BME280;17847;31.524;74.366;2023-03-12T01:19:14;99088.88;;;19.82;73.53
31225;BME280;17847;31.524;74.366;2023-03-12T01:22:03;99100.53;;;19.88;74.02
31225;BME280;17847;31.524;74.366;2023-03-12T01:24:52;99101.84;;;20.02;73.57
31225;BME280;17847;31.524;74.366;2023-03-12T01:27:34;99099.59;;;20.44;72.07
31225;BME280;17847;31.524;74.366;2023-03-12T01:30:23;99116.91;;;20.31;71.60
31225;BME280;17847;31.524;74.366;2023-03-12T01:33:04;99110.91;;;20.29;71.54
31225;BME280;17847;31.524;74.366;2023-03-12T01:35:54;99115.06;;;20.20;72.77
31225;BME280;17847;31.524;74.366;2023-03-12T01:38:37;99112.69;;;20.07;73.47
31225;BME280;17847;31.524;74.366;2023-03-12T01:41:27;99110.31;;;19.94;72.96
31225;BME280;17847;31.524;74.366;2023-03-12T01:44:13;99115.47;;;20.62;72.35
31225;BME280;17847;31.524;74.366;2023-03-12T01:47:03;99120.94;;;20.50;70.97
31225;BME280;17847;31.524;74.366;2023-03-12T01:49:47;99124.13;;;20.47;71.80
31225;BME280;17847;31.524;74.366;2023-03-12T01:52:38;99135.28;;;20.56;71.25
31225;BME280;17847;31.524;74.366;2023-03-12T01:55:21;99118.97;;;20.46;70.83
31225;BME280;17847;31.524;74.366;2023-03-12T01:58:16;99133.06;;;21.08;70.21
31225;BME280;17847;31.524;74.366;2023-03-12T02:00:59;99128.28;;;21.32;68.07
31225;BME280;17847;31.524;74.366;2023-03-12T02:03:50;99140.59;;;21.06;69.50
31225;BME280;17847;31.524;74.366;2023-03-12T02:07:01;99132.53;;;21.28;68.95
31225;BME280;17847;31.524;74.366;2023-03-12T02:09:51;99132.41;;;21.39;68.07
31225;BME280;17847;31.524;74.366;2023-03-12T02:12:27;99145.72;;;21.51;67.04
31225;BME280;17847;31.524;74.366;2023-03-12T02:15:22;99143.53;;;21.48;66.83
31225;BME280;17847;31.524;74.366;2023-03-12T02:17:58;99153.19;;;21.44;66.86
31225;BME280;17847;31.524;74.366;2023-03-12T02:21:07;99157.59;;;21.50;67.74
31225;BME280;17847;31.524;74.366;2023-03-12T02:23:59;99162.19;;;21.76;66.11
31225;BME280;17847;31.524;74.366;2023-03-12T02:26:56;99158.09;;;21.95;64.89
31225;BME280;17847;31.524;74.366;2023-03-12T02:29:44;99158.59;;;22.88;62.21
31225;BME280;17847;31.524;74.366;2023-03-12T02:32:34;99163.16;;;24.27;58.45
31225;BME280;17847;31.524;74.366;2023-03-12T02:35:19;99167.25;;;24.50;57.98
31225;BME280;17847;31.524;74.366;2023-03-12T02:46:54;99174.91;;;25.58;54.91
31225;BME280;17847;31.524;74.366;2023-03-12T02:49:43;99184.19;;;25.96;54.43
31225;BME280;17847;31.524;74.366;2023-03-12T02:52:26;99187.00;;;26.58;52.49
31225;BME280;17847;31.524;74.366;2023-03-12T02:55:16;99182.66;;;26.57;52.31
31225;BME280;17847;31.524;74.366;2023-03-12T02:57:59;99183.34;;;27.02;48.36
31225;BME280;17847;31.524;74.366;2023-03-12T03:00:47;99188.56;;;27.22;49.35
31225;BME280;17847;31.524;74.366;2023-03-12T03:03:30;99187.88;;;28.20;47.18
31225;BME280;17847;31.524;74.366;2023-03-12T03:06:25;99190.38;;;28.35;46.86
31225;BME280;17847;31.524;74.366;2023-03-12T03:09:08;99198.41;;;27.42;48.21
31225;BME280;17847;31.524;74.366;2023-03-12T03:11:57;99201.88;;;27.71;48.41
31225;BME280;17847;31.524;74.366;2023-03-12T03:14:33;99205.25;;;27.15;48.59
31225;BME280;17847;31.524;74.366;2023-03-12T03:17:30;99211.72;;;26.23;50.55
31225;BME280;17847;31.524;74.366;2023-03-12T03:20:13;99214.78;;;26.50;50.12
31225;BME280;17847;31.524;74.366;2023-03-12T03:23:04;99224.31;;;25.99;50.89
31225;BME280;17847;31.524;74.366;2023-03-12T03:25:53;99227.50;;;25.62;52.12
31225;BME280;17847;31.524;74.366;2023-03-12T03:28:37;99226.13;;;25.64;52.60
31225;BME280;17847;31.524;74.366;2023-03-12T03:31:26;99229.41;;;25.61;51.98
31225;BME280;17847;31.524;74.366;2023-03-12T03:34:09;99233.19;;;25.60;52.13
31225;BME280;17847;31.524;74.366;2023-03-12T03:37:04;99239.75;;;26.08;51.83
31225;BME280;17847;31.524;74.366;2023-03-12T03:39:46;99244.78;;;25.76;51.75
31225;BME280;17847;31.524;74.366;2023-03-12T03:42:35;99239.72;;;25.59;51.57
31225;BME280;17847;31.524;74.366;2023-03-12T03:45:18;99246.75;;;25.65;51.63
31225;BME280;17847;31.524;74.366;2023-03-12T03:48:07;99245.13;;;25.64;52.94
31225;BME280;17847;31.524;74.366;2023-03-12T03:50:49;99251.63;;;25.58;52.39
31225;BME280;17847;31.524;74.366;2023-03-12T03:53:41;99247.25;;;25.72;52.59
31225;BME280;17847;31.524;74.366;2023-03-12T03:56:24;99258.25;;;26.06;51.62
31225;BME280;17847;31.524;74.366;2023-03-12T03:59:14;99253.13;;;26.44;51.59
31225;BME280;17847;31.524;74.366;2023-03-12T04:01:57;99254.47;;;25.97;50.47
31225;BME280;17847;31.524;74.366;2023-03-12T04:04:46;99258.56;;;25.89;50.07
31225;BME280;17847;31.524;74.366;2023-03-12T04:07:29;99268.97;;;25.72;50.59
31225;BME280;17847;31.524;74.366;2023-03-12T04:10:28;99266.75;;;25.84;50.07
31225;BME280;17847;31.524;74.366;2023-03-12T04:13:11;99268.25;;;26.11;49.98
31225;BME280;17847;31.524;74.366;2023-03-12T04:15:59;99274.03;;;26.48;47.88
31225;BME280;17847;31.524;74.366;2023-03-12T04:18:42;99268.88;;;26.86;47.65
31225;BME280;17847;31.524;74.366;2023-03-12T04:21:38;99269.41;;;26.88;47.60
31225;BME280;17847;31.524;74.366;2023-03-12T04:24:20;99268.19;;;27.04;48.15
31225;BME280;17847;31.524;74.366;2023-03-12T04:27:15;99269.63;;;26.91;47.17
31225;BME280;17847;31.524;74.366;2023-03-12T04:29:57;99273.28;;;27.10;45.99
31225;BME280;17847;31.524;74.366;2023-03-12T04:32:46;99270.13;;;27.98;45.95
31225;BME280;17847;31.524;74.366;2023-03-12T04:35:22;99277.00;;;27.72;44.01
31225;BME280;17847;31.524;74.366;2023-03-12T04:38:17;99270.28;;;29.00;43.56
31225;BME280;17847;31.524;74.366;2023-03-12T04:41:09;99272.25;;;29.27;41.80
31225;BME280;17847;31.524;74.366;2023-03-12T04:44:04;99277.78;;;29.82;42.46
31225;BME280;17847;31.524;74.366;2023-03-12T04:46:41;99274.53;;;29.94;41.45
31225;BME280;17847;31.524;74.366;2023-03-12T04:49:38;99273.19;;;29.04;40.83
31225;BME280;17847;31.524;74.366;2023-03-12T04:52:14;99269.78;;;29.12;40.60
31225;BME280;17847;31.524;74.366;2023-03-12T04:55:10;99267.50;;;28.87;42.30
31225;BME280;17847;31.524;74.366;2023-03-12T04:57:45;99266.97;;;29.91;41.29
31225;BME280;17847;31.524;74.366;2023-03-12T05:00:41;99262.31;;;29.91;41.64
31225;BME280;17847;31.524;74.366;2023-03-12T05:03:24;99263.75;;;29.29;41.34
31225;BME280;17847;31.524;74.366;2023-03-12T05:06:21;99266.75;;;29.60;40.09
31225;BME280;17847;31.524;74.366;2023-03-12T05:09:04;99264.97;;;29.23;39.96
31225;BME280;17847;31.524;74.366;2023-03-12T05:11:52;99262.00;;;29.93;40.40
31225;BME280;17847;31.524;74.366;2023-03-12T05:14:35;99256.22;;;30.44;40.74
31225;BME280;17847;31.524;74.366;2023-03-12T05:17:24;99251.16;;;30.37;39.56
31225;BME280;17847;31.524;74.366;2023-03-12T05:20:08;99258.56;;;29.87;40.14
31225;BME280;17847;31.524;74.366;2023-03-12T05:22:58;99255.22;;;29.63;39.35
31225;BME280;17847;31.524;74.366;2023-03-12T05:25:47;99239.91;;;30.52;40.04
31225;BME280;17847;31.524;74.366;2023-03-12T05:28:29;99243.06;;;30.46;37.53
31225;BME280;17847;31.524;74.366;2023-03-12T05:31:19;99238.63;;;30.81;38.85
31225;BME280;17847;31.524;74.366;2023-03-12T05:33:56;99241.03;;;31.27;40.10
31225;BME280;17847;31.524;74.366;2023-03-12T05:36:52;99237.09;;;31.10;37.46
31225;BME280;17847;31.524;74.366;2023-03-12T05:39:35;99235.13;;;31.02;36.96
31225;BME280;17847;31.524;74.366;2023-03-12T05:42:35;99238.84;;;31.37;39.04
31225;BME280;17847;31.524;74.366;2023-03-12T05:45:18;99233.94;;;31.65;38.35
31225;BME280;17847;31.524;74.366;2023-03-12T05:48:08;99236.28;;;31.10;38.21
31225;BME280;17847;31.524;74.366;2023-03-12T05:50:53;99246.38;;;31.01;39.06
31225;BME280;17847;31.524;74.366;2023-03-12T05:53:44;99243.16;;;31.38;37.19
31225;BME280;17847;31.524;74.366;2023-03-12T05:56:43;99241.66;;;30.48;37.15
31225;BME280;17847;31.524;74.366;2023-03-12T05:59:34;99241.00;;;30.15;37.58
31225;BME280;17847;31.524;74.366;2023-03-12T06:02:16;99240.13;;;30.06;37.50
31225;BME280;17847;31.524;74.366;2023-03-12T06:05:13;99231.44;;;29.77;38.07
31225;BME280;17847;31.524;74.366;2023-03-12T06:07:50;99234.81;;;30.23;39.30
31225;BME280;17847;31.524;74.366;2023-03-12T06:10:46;99232.13;;;30.68;38.38
31225;BME280;17847;31.524;74.366;2023-03-12T06:13:31;99230.06;;;30.96;37.25
31225;BME280;17847;31.524;74.366;2023-03-12T06:16:23;99226.69;;;30.99;34.46
31225;BME280;17847;31.524;74.366;2023-03-12T06:19:06;99223.78;;;30.95;36.33
31225;BME280;17847;31.524;74.366;2023-03-12T06:22:02;99222.00;;;31.21;34.39
31225;BME280;17847;31.524;74.366;2023-03-12T06:24:44;99223.25;;;31.07;38.14
31225;BME280;17847;31.524;74.366;2023-03-12T06:27:34;99222.50;;;31.24;37.59
31225;BME280;17847;31.524;74.366;2023-03-12T06:30:17;99215.53;;;31.17;36.57
31225;BME280;17847;31.524;74.366;2023-03-12T06:33:05;99207.81;;;30.89;37.57
31225;BME280;17847;31.524;74.366;2023-03-12T06:35:59;99207.28;;;30.56;34.70
31225;BME280;17847;31.524;74.366;2023-03-12T06:38:48;99207.53;;;30.99;38.76
31225;BME280;17847;31.524;74.366;2023-03-12T06:41:31;99201.81;;;31.09;37.28
31225;BME280;17847;31.524;74.366;2023-03-12T06:44:19;99192.13;;;31.03;37.04
31225;BME280;17847;31.524;74.366;2023-03-12T06:47:01;99197.19;;;31.18;37.04
31225;BME280;17847;31.524;74.366;2023-03-12T06:49:50;99200.81;;;31.36;37.45
31225;BME280;17847;31.524;74.366;2023-03-12T06:52:32;99191.47;;;31.37;34.34
31225;BME280;17847;31.524;74.366;2023-03-12T06:55:21;99182.75;;;31.35;36.27
31225;BME280;17847;31.524;74.366;2023-03-12T06:58:04;99179.19;;;31.26;36.90
31225;BME280;17847;31.524;74.366;2023-03-12T07:00:52;99176.31;;;31.31;34.95
31225;BME280;17847;31.524;74.366;2023-03-12T07:03:35;99172.53;;;31.09;32.24
31225;BME280;17847;31.524;74.366;2023-03-12T07:06:24;99168.06;;;31.22;35.91
31225;BME280;17847;31.524;74.366;2023-03-12T07:09:07;99175.03;;;31.28;34.71
31225;BME280;17847;31.524;74.366;2023-03-12T07:11:55;99163.72;;;30.90;36.95
31225;BME280;17847;31.524;74.366;2023-03-12T07:14:37;99160.50;;;30.88;38.14
31225;BME280;17847;31.524;74.366;2023-03-12T07:17:26;99163.22;;;30.88;34.42
31225;BME280;17847;31.524;74.366;2023-03-12T07:20:09;99153.63;;;30.68;32.63
31225;BME280;17847;31.524;74.366;2023-03-12T07:22:59;99153.16;;;30.66;33.90
31225;BME280;17847;31.524;74.366;2023-03-12T07:25:48;99145.97;;;30.48;32.99
31225;BME280;17847;31.524;74.366;2023-03-12T07:28:30;99141.22;;;30.40;34.09
31225;BME280;17847;31.524;74.366;2023-03-12T07:31:20;99139.22;;;30.32;35.75
31225;BME280;17847;31.524;74.366;2023-03-12T07:34:02;99133.69;;;30.46;36.74
31225;BME280;17847;31.524;74.366;2023-03-12T07:36:53;99138.84;;;30.69;36.67
31225;BME280;17847;31.524;74.366;2023-03-12T07:39:34;99124.91;;;30.80;34.93
31225;BME280;17847;31.524;74.366;2023-03-12T07:42:24;99116.06;;;30.83;34.46
31225;BME280;17847;31.524;74.366;2023-03-12T07:45:00;99113.19;;;30.88;36.66
31225;BME280;17847;31.524;74.366;2023-03-12T07:47:55;99118.03;;;30.60;33.13
31225;BME280;17847;31.524;74.366;2023-03-12T07:50:37;99107.81;;;30.74;36.50
31225;BME280;17847;31.524;74.366;2023-03-12T07:53:26;99104.22;;;30.65;35.83
31225;BME280;17847;31.524;74.366;2023-03-12T07:56:08;99091.50;;;30.60;36.38
31225;BME280;17847;31.524;74.366;2023-03-12T07:58:57;99081.47;;;30.47;32.64
31225;BME280;17847;31.524;74.366;2023-03-12T08:01:32;99089.97;;;30.46;36.63
31225;BME280;17847;31.524;74.366;2023-03-12T08:04:28;99091.69;;;30.42;37.30
31225;BME280;17847;31.524;74.366;2023-03-12T08:07:09;99080.34;;;30.26;31.44
31225;BME280;17847;31.524;74.366;2023-03-12T08:10:04;99076.00;;;30.03;32.35
31225;BME280;17847;31.524;74.366;2023-03-12T08:12:47;99084.56;;;30.10;31.37
31225;BME280;17847;31.524;74.366;2023-03-12T08:15:36;99083.06;;;30.26;32.62
31225;BME280;17847;31.524;74.366;2023-03-12T08:18:19;99067.81;;;30.56;33.96
31225;BME280;17847;31.524;74.366;2023-03-12T08:21:08;99068.34;;;30.58;32.72
31225;BME280;17847;31.524;74.366;2023-03-12T08:23:50;99063.34;;;30.60;35.62
31225;BME280;17847;31.524;74.366;2023-03-12T08:26:47;99045.72;;;30.44;34.55
31225;BME280;17847;31.524;74.366;2023-03-12T08:29:30;99039.88;;;30.37;34.88
31225;BME280;17847;31.524;74.366;2023-03-12T08:32:20;99029.56;;;30.03;33.58
31225;BME280;17847;31.524;74.366;2023-03-12T08:34:56;99024.97;;;30.12;37.70
31225;BME280;17847;31.524;74.366;2023-03-12T08:37:53;99027.63;;;30.03;35.63
31225;BME280;17847;31.524;74.366;2023-03-12T08:40:35;99024.22;;;29.98;38.18
31225;BME280;17847;31.524;74.366;2023-03-12T08:43:26;99027.50;;;30.08;36.52
31225;BME280;17847;31.524;74.366;2023-03-12T08:46:09;99018.59;;;30.25;37.96
31225;BME280;17847;31.524;74.366;2023-03-12T08:48:58;99007.94;;;30.46;36.34
31225;BME280;17847;31.524;74.366;2023-03-12T08:51:39;99015.13;;;30.42;37.69
31225;BME280;17847;31.524;74.366;2023-03-12T08:54:28;99014.28;;;30.32;35.53
31225;BME280;17847;31.524;74.366;2023-03-12T08:57:24;99002.41;;;30.37;36.54
31225;BME280;17847;31.524;74.366;2023-03-12T09:00:08;98993.38;;;30.28;37.77
31225;BME280;17847;31.524;74.366;2023-03-12T09:02:58;98986.88;;;30.15;35.16
31225;BME280;17847;31.524;74.366;2023-03-12T09:05:41;98983.28;;;30.06;37.17
31225;BME280;17847;31.524;74.366;2023-03-12T09:08:30;98980.72;;;30.10;37.36
31225;BME280;17847;31.524;74.366;2023-03-12T09:11:15;98978.63;;;30.07;38.43
31225;BME280;17847;31.524;74.366;2023-03-12T09:14:03;98975.25;;;30.10;36.62
31225;BME280;17847;31.524;74.366;2023-03-12T09:17:05;98966.13;;;30.14;37.58
31225;BME280;17847;31.524;74.366;2023-03-12T09:19:54;98963.56;;;30.09;38.78
31225;BME280;17847;31.524;74.366;2023-03-12T09:22:40;98958.88;;;30.10;37.03
31225;BME280;17847;31.524;74.366;2023-03-12T09:25:37;98955.53;;;30.13;38.62
31225;BME280;17847;31.524;74.366;2023-03-12T09:28:32;98949.31;;;30.21;40.45
31225;BME280;17847;31.524;74.366;2023-03-12T09:31:07;98933.56;;;30.26;41.09
31225;BME280;17847;31.524;74.366;2023-03-12T09:34:03;98927.31;;;30.26;38.82
31225;BME280;17847;31.524;74.366;2023-03-12T09:36:45;98930.84;;;30.26;39.94
31225;BME280;17847;31.524;74.366;2023-03-12T09:39:35;98931.72;;;30.05;40.41
31225;BME280;17847;31.524;74.366;2023-03-12T09:42:24;98926.22;;;29.96;41.04
31225;BME280;17847;31.524;74.366;2023-03-12T09:45:27;98927.19;;;30.00;41.47
31225;BME280;17847;31.524;74.366;2023-03-12T09:48:35;98920.47;;;29.84;42.02
31225;BME280;17847;31.524;74.366;2023-03-12T09:51:32;98924.38;;;29.61;41.49
31225;BME280;17847;31.524;74.366;2023-03-12T09:54:35;98915.38;;;29.60;41.96
31225;BME280;17847;31.524;74.366;2023-03-12T09:57:32;98911.56;;;29.48;41.92
31225;BME280;17847;31.524;74.366;2023-03-12T10:00:18;98910.94;;;29.28;43.05
31225;BME280;17847;31.524;74.366;2023-03-12T10:06:14;98902.59;;;29.47;42.95
31225;BME280;17847;31.524;74.366;2023-03-12T10:09:20;98908.59;;;29.35;43.83
31225;BME280;17847;31.524;74.366;2023-03-12T10:19:26;98899.34;;;29.23;43.43
31225;BME280;17847;31.524;74.366;2023-03-12T10:25:07;98895.81;;;29.22;43.11
31225;BME280;17847;31.524;74.366;2023-03-12T10:28:17;98899.56;;;29.13;43.15
31225;BME280;17847;31.524;74.366;2023-03-12T10:31:06;98899.38;;;29.09;43.82
31225;BME280;17847;31.524;74.366;2023-03-12T10:34:14;98891.72;;;29.11;43.84
31225;BME280;17847;31.524;74.366;2023-03-12T10:37:05;98897.41;;;29.01;43.70
31225;BME280;17847;31.524;74.366;2023-03-12T10:40:00;98899.16;;;28.83;43.75
31225;BME280;17847;31.524;74.366;2023-03-12T10:42:38;98888.81;;;28.72;44.00
31225;BME280;17847;31.524;74.366;2023-03-12T10:45:57;98895.97;;;28.68;43.36
31225;BME280;17847;31.524;74.366;2023-03-12T10:48:42;98891.09;;;28.65;44.17
31225;BME280;17847;31.524;74.366;2023-03-12T10:51:31;98889.47;;;28.64;43.20
31225;BME280;17847;31.524;74.366;2023-03-12T10:54:22;98880.19;;;28.65;43.52
31225;BME280;17847;31.524;74.366;2023-03-12T10:57:12;98894.44;;;28.62;43.13
31225;BME280;17847;31.524;74.366;2023-03-12T10:59:49;98891.72;;;28.62;44.12
31225;BME280;17847;31.524;74.366;2023-03-12T11:02:46;98884.84;;;28.50;43.80
31225;BME280;17847;31.524;74.366;2023-03-12T11:08:34;98883.38;;;28.44;43.56
31225;BME280;17847;31.524;74.366;2023-03-12T11:11:30;98879.53;;;28.45;43.20
31225;BME280;17847;31.524;74.366;2023-03-12T11:14:28;98879.94;;;28.39;43.42
31225;BME280;17847;31.524;74.366;2023-03-12T11:17:20;98873.19;;;28.36;44.09
31225;BME280;17847;31.524;74.366;2023-03-12T11:20:28;98875.22;;;28.31;44.57
31225;BME280;17847;31.524;74.366;2023-03-12T11:23:16;98871.28;;;28.23;45.12
31225;BME280;17847;31.524;74.366;2023-03-12T11:26:19;98881.34;;;28.09;45.16
31225;BME280;17847;31.524;74.366;2023-03-12T11:34:50;98865.38;;;27.89;44.92
31225;BME280;17847;31.524;74.366;2023-03-12T11:44:02;98857.50;;;27.74;44.34
31225;BME280;17847;31.524;74.366;2023-03-12T11:47:16;98862.25;;;27.68;45.94
31225;BME280;17847;31.524;74.366;2023-03-12T12:02:34;98856.91;;;27.44;47.53
31225;BME280;17847;31.524;74.366;2023-03-12T12:09:06;98857.09;;;27.34;48.07
31225;BME280;17847;31.524;74.366;2023-03-12T12:15:43;98856.97;;;27.25;48.57
31225;BME280;17847;31.524;74.366;2023-03-12T12:25:19;98851.50;;;27.12;47.53
31225;BME280;17847;31.524;74.366;2023-03-12T12:28:53;98857.81;;;27.07;48.95
31225;BME280;17847;31.524;74.366;2023-03-12T12:31:57;98857.38;;;27.00;47.69
31225;BME280;17847;31.524;74.366;2023-03-12T12:41:18;98870.81;;;26.92;48.37
31225;BME280;17847;31.524;74.366;2023-03-12T12:44:17;98870.81;;;26.92;48.85
31225;BME280;17847;31.524;74.366;2023-03-12T12:47:02;98876.84;;;26.89;48.66
31225;BME280;17847;31.524;74.366;2023-03-12T12:50:00;98877.50;;;26.80;48.92
31225;BME280;17847;31.524;74.366;2023-03-12T12:52:38;98874.84;;;26.75;49.33
31225;BME280;17847;31.524;74.366;2023-03-12T13:01:37;98881.94;;;26.53;50.43
31225;BME280;17847;31.524;74.366;2023-03-12T13:04:24;98890.69;;;26.50;50.43
31225;BME280;17847;31.524;74.366;2023-03-12T13:10:04;98889.34;;;26.47;50.68
31225;BME280;17847;31.524;74.366;2023-03-12T13:13:11;98897.06;;;26.40;51.01
31225;BME280;17847;31.524;74.366;2023-03-12T13:15:47;98895.75;;;26.38;52.10
31225;BME280;17847;31.524;74.366;2023-03-12T13:18:58;98899.59;;;26.31;54.14
31225;BME280;17847;31.524;74.366;2023-03-12T13:28:55;98904.34;;;26.16;57.08
31225;BME280;17847;31.524;74.366;2023-03-12T13:37:02;98901.97;;;25.85;56.42
31225;BME280;17847;31.524;74.366;2023-03-12T13:39:50;98908.44;;;25.89;57.76
31225;BME280;17847;31.524;74.366;2023-03-12T13:42:38;98912.56;;;25.87;57.18
31225;BME280;17847;31.524;74.366;2023-03-12T13:45:28;98913.94;;;25.84;57.47
31225;BME280;17847;31.524;74.366;2023-03-12T13:48:17;98912.09;;;25.80;59.17
31225;BME280;17847;31.524;74.366;2023-03-12T13:51:24;98918.66;;;25.74;58.56
31225;BME280;17847;31.524;74.366;2023-03-12T13:54:16;98918.97;;;25.67;58.86
31225;BME280;17847;31.524;74.366;2023-03-12T13:57:11;98923.94;;;25.60;57.71
31225;BME280;17847;31.524;74.366;2023-03-12T13:59:55;98924.53;;;25.52;58.60
31225;BME280;17847;31.524;74.366;2023-03-12T14:02:53;98928.03;;;25.53;58.66
31225;BME280;17847;31.524;74.366;2023-03-12T14:05:56;98924.28;;;25.48;58.60
31225;BME280;17847;31.524;74.366;2023-03-12T14:09:07;98920.53;;;25.44;59.02
31225;BME280;17847;31.524;74.366;2023-03-12T14:12:09;98921.03;;;25.46;59.13
31225;BME280;17847;31.524;74.366;2023-03-12T14:15:19;98918.56;;;25.50;58.98
31225;BME280;17847;31.524;74.366;2023-03-12T14:18:21;98922.25;;;25.30;58.13
31225;BME280;17847;31.524;74.366;2023-03-12T14:21:15;98925.03;;;25.20;59.67
31225;BME280;17847;31.524;74.366;2023-03-12T14:23:58;98935.41;;;25.13;59.84
31225;BME280;17847;31.524;74.366;2023-03-12T14:26:48;98940.03;;;25.08;59.97
31225;BME280;17847;31.524;74.366;2023-03-12T14:29:37;98932.53;;;24.94;59.03
31225;BME280;17847;31.524;74.366;2023-03-12T14:32:29;98939.59;;;24.90;61.07
31225;BME280;17847;31.524;74.366;2023-03-12T14:35:48;98946.66;;;24.86;59.96
31225;BME280;17847;31.524;74.366;2023-03-12T14:38:39;98942.06;;;24.77;61.09
31225;BME280;17847;31.524;74.366;2023-03-12T14:41:34;98942.66;;;24.69;60.34
31225;BME280;17847;31.524;74.366;2023-03-12T14:44:33;98950.50;;;24.70;62.53
31225;BME280;17847;31.524;74.366;2023-03-12T14:47:17;98951.63;;;24.59;61.42
31225;BME280;17847;31.524;74.366;2023-03-12T14:50:14;98953.84;;;24.47;61.90
31225;BME280;17847;31.524;74.366;2023-03-12T14:53:11;98958.22;;;24.43;62.11
31225;BME280;17847;31.524;74.366;2023-03-12T14:58:52;98968.25;;;24.32;62.11
31225;BME280;17847;31.524;74.366;2023-03-12T15:01:40;98968.50;;;24.31;63.13
31225;BME280;17847;31.524;74.366;2023-03-12T15:04:23;98976.94;;;24.29;62.88
31225;BME280;17847;31.524;74.366;2023-03-12T15:07:15;98980.47;;;24.20;62.85
31225;BME280;17847;31.524;74.366;2023-03-12T15:10:03;98983.97;;;24.15;62.05
31225;BME280;17847;31.524;74.366;2023-03-12T15:12:55;98978.56;;;24.10;62.84
31225;BME280;17847;31.524;74.366;2023-03-12T15:15:46;98983.72;;;24.06;63.04
31225;BME280;17847;31.524;74.366;2023-03-12T15:18:36;98982.91;;;24.01;62.72
31225;BME280;17847;31.524;74.366;2023-03-12T15:21:19;98986.16;;;23.98;63.50
31225;BME280;17847;31.524;74.366;2023-03-12T15:24:11;98981.28;;;23.95;64.15
31225;BME280;17847;31.524;74.366;2023-03-12T15:30:29;98997.53;;;23.90;64.69
31225;BME280;17847;31.524;74.366;2023-03-12T15:39:02;99003.44;;;24.27;64.09
31225;BME280;17847;31.524;74.366;2023-03-12T15:41:51;99003.94;;;24.44;63.29
31225;BME280;17847;31.524;74.366;2023-03-12T15:44:46;98994.50;;;24.37;63.21
31225;BME280;17847;31.524;74.366;2023-03-12T15:47:39;99003.69;;;24.41;63.33
31225;BME280;17847;31.524;74.366;2023-03-12T15:50:40;99006.94;;;24.43;63.54
31225;BME280;17847;31.524;74.366;2023-03-12T15:53:36;99007.69;;;24.58;62.39
31225;BME280;17847;31.524;74.366;2023-03-12T15:56:22;99012.25;;;24.73;62.19
31225;BME280;17847;31.524;74.366;2023-03-12T15:59:27;99016.06;;;24.62;62.79
31225;BME280;17847;31.524;74.366;2023-03-12T16:02:10;99014.91;;;24.93;62.83
31225;BME280;17847;31.524;74.366;2023-03-12T16:05:00;99020.88;;;24.85;61.88
31225;BME280;17847;31.524;74.366;2023-03-12T16:07:42;99013.63;;;24.66;62.25
31225;BME280;17847;31.524;74.366;2023-03-12T16:10:33;99014.53;;;24.26;62.91
31225;BME280;17847;31.524;74.366;2023-03-12T16:13:20;99014.84;;;24.24;64.75
31225;BME280;17847;31.524;74.366;2023-03-12T16:16:11;99010.22;;;24.04;64.40
31225;BME280;17847;31.524;74.366;2023-03-12T16:18:53;99007.00;;;24.02;66.66
31225;BME280;17847;31.524;74.366;2023-03-12T16:21:42;99008.31;;;24.10;65.73
31225;BME280;17847;31.524;74.366;2023-03-12T16:24:24;99005.06;;;24.08;65.64
31225;BME280;17847;31.524;74.366;2023-03-12T16:27:14;99011.84;;;24.00;65.19
31225;BME280;17847;31.524;74.366;2023-03-12T16:30:29;99007.25;;;23.86;65.15